sensor_id;sensor_type;location;lat;lon;timestamp;P1;durP1;ratioP1;P2;durP2;ratioP2
14520;SDS011;7347;50.844;4.490;2023-04-02T09:05:57;10.17;;;5.23;;
14520;SDS011;7347;50.844;4.490;2023-04-02T09:08:26;14.20;;;5.47;;
14520;SDS011;7347;50.844;4.490;2023-04-02T09:10:57;11.33;;;5.40;;
14520;SDS011;7347;50.844;4.490;2023-04-02T09:13:29;9.20;;;5.43;;
14520;SDS011;7347;50.844;4.490;2023-04-02T09:15:58;9.70;;;4.80;;
14520;SDS011;7347;50.844;4.490;2023-04-02T09:18:28;9.83;;;5.23;;
14520;SDS011;7347;50.844;4.490;2023-04-02T09:20:55;13.07;;;6.13;;
14520;SDS011;7347;50.844;4.490;2023-04-02T09:23:24;13.17;;;5.20;;
14520;SDS011;7347;50.844;4.490;2023-04-02T09:25:51;9.53;;;4.83;;
14520;SDS011;7347;50.844;4.490;2023-04-02T09:28:18;8.57;;;5.40;;
14520;SDS011;7347;50.844;4.490;2023-04-02T09:30:52;8.67;;;5.13;;
14520;SDS011;7347;50.844;4.490;2023-04-02T09:33:40;8.83;;;4.40;;
14520;SDS011;7347;50.844;4.490;2023-04-02T09:36:09;8.70;;;4.67;;
14520;SDS011;7347;50.844;4.490;2023-04-02T09:38:57;8.13;;;4.57;;
14520;SDS011;7347;50.844;4.490;2023-04-02T09:41:25;8.37;;;4.83;;
14520;SDS011;7347;50.844;4.490;2023-04-02T09:46:45;6.17;;;4.00;;
14520;SDS011;7347;50.844;4.490;2023-04-02T09:49:16;8.43;;;4.43;;
14520;SDS011;7347;50.844;4.490;2023-04-02T09:51:44;9.20;;;4.23;;
14520;SDS011;7347;50.844;4.490;2023-04-02T09:54:12;5.67;;;3.43;;
14520;SDS011;7347;50.844;4.490;2023-04-02T09:56:39;5.47;;;3.47;;
14520;SDS011;7347;50.844;4.490;2023-04-02T09:59:22;7.57;;;3.57;;
14520;SDS011;7347;50.844;4.490;2023-04-02T10:01:55;5.53;;;3.13;;
14520;SDS011;7347;50.844;4.490;2023-04-02T10:04:33;5.33;;;3.40;;
14520;SDS011;7347;50.844;4.490;2023-04-02T10:07:02;4.40;;;2.80;;
14520;SDS011;7347;50.844;4.490;2023-04-02T10:09:32;5.63;;;3.13;;
14520;SDS011;7347;50.844;4.490;2023-04-02T10:12:01;6.03;;;3.33;;
14520;SDS011;7347;50.844;4.490;2023-04-02T10:14:31;4.70;;;2.80;;
14520;SDS011;7347;50.844;4.490;2023-04-02T10:17:03;9.83;;;3.43;;
14520;SDS011;7347;50.844;4.490;2023-04-02T10:19:37;4.90;;;2.97;;
14520;SDS011;7347;50.844;4.490;2023-04-02T10:22:10;3.07;;;2.53;;
14520;SDS011;7347;50.844;4.490;2023-04-02T10:24:39;4.50;;;2.80;;
14520;SDS011;7347;50.844;4.490;2023-04-02T10:27:10;6.60;;;2.50;;
14520;SDS011;7347;50.844;4.490;2023-04-02T10:29:49;3.67;;;2.50;;
14520;SDS011;7347;50.844;4.490;2023-04-02T10:32:22;3.93;;;2.90;;
14520;SDS011;7347;50.844;4.490;2023-04-02T10:34:56;7.63;;;3.10;;
14520;SDS011;7347;50.844;4.490;2023-04-02T10:40:33;4.53;;;2.60;;
14520;SDS011;7347;50.844;4.490;2023-04-02T10:46:05;5.57;;;2.83;;
14520;SDS011;7347;50.844;4.490;2023-04-02T10:48:39;4.67;;;2.20;;
14520;SDS011;7347;50.844;4.490;2023-04-02T10:51:13;4.90;;;2.43;;
14520;SDS011;7347;50.844;4.490;2023-04-02T10:53:50;10.13;;;2.50;;
14520;SDS011;7347;50.844;4.490;2023-04-02T10:56:24;4.87;;;2.20;;
14520;SDS011;7347;50.844;4.490;2023-04-02T10:58:54;2.90;;;2.00;;
14520;SDS011;7347;50.844;4.490;2023-04-02T11:01:26;5.03;;;1.97;;
14520;SDS011;7347;50.844;4.490;2023-04-02T11:03:56;3.27;;;2.17;;
14520;SDS011;7347;50.844;4.490;2023-04-02T11:06:27;4.07;;;1.87;;
14520;SDS011;7347;50.844;4.490;2023-04-02T11:08:57;3.03;;;2.27;;
14520;SDS011;7347;50.844;4.490;2023-04-02T11:11:31;2.57;;;1.93;;
14520;SDS011;7347;50.844;4.490;2023-04-02T11:14:04;5.87;;;1.80;;
14520;SDS011;7347;50.844;4.490;2023-04-02T11:16:38;2.40;;;1.50;;
14520;SDS011;7347;50.844;4.490;2023-04-02T11:19:20;2.47;;;1.47;;
14520;SDS011;7347;50.844;4.490;2023-04-02T11:21:49;3.07;;;1.63;;
14520;SDS011;7347;50.844;4.490;2023-04-02T11:24:34;3.33;;;1.87;;
14520;SDS011;7347;50.844;4.490;2023-04-02T11:27:05;3.53;;;1.70;;
14520;SDS011;7347;50.844;4.490;2023-04-02T11:29:40;2.80;;;1.77;;
14520;SDS011;7347;50.844;4.490;2023-04-02T11:32:13;6.60;;;1.90;;
14520;SDS011;7347;50.844;4.490;2023-04-02T11:37:55;2.30;;;1.60;;
14520;SDS011;7347;50.844;4.490;2023-04-02T11:40:39;4.97;;;1.83;;
14520;SDS011;7347;50.844;4.490;2023-04-02T11:52:01;5.17;;;2.00;;
14520;SDS011;7347;50.844;4.490;2023-04-02T11:54:31;3.43;;;1.87;;
14520;SDS011;7347;50.844;4.490;2023-04-02T11:57:05;3.63;;;1.60;;
14520;SDS011;7347;50.844;4.490;2023-04-02T11:59:44;3.07;;;1.70;;
14520;SDS011;7347;50.844;4.490;2023-04-02T12:02:22;2.57;;;1.47;;
14520;SDS011;7347;50.844;4.490;2023-04-02T12:04:57;5.37;;;1.43;;
14520;SDS011;7347;50.844;4.490;2023-04-02T12:07:56;2.80;;;1.70;;
14520;SDS011;7347;50.844;4.490;2023-04-02T12:10:48;3.93;;;1.73;;
14520;SDS011;7347;50.844;4.490;2023-04-02T12:13:19;3.77;;;1.60;;
14520;SDS011;7347;50.844;4.490;2023-04-02T12:15:47;1.40;;;1.20;;
14520;SDS011;7347;50.844;4.490;2023-04-02T12:18:20;2.50;;;1.20;;
14520;SDS011;7347;50.844;4.490;2023-04-02T12:20:49;3.07;;;1.53;;
14520;SDS011;7347;50.844;4.490;2023-04-02T12:23:17;4.13;;;1.70;;
14520;SDS011;7347;50.844;4.490;2023-04-02T12:25:52;2.40;;;1.67;;
14520;SDS011;7347;50.844;4.490;2023-04-02T12:28:22;2.70;;;1.50;;
14520;SDS011;7347;50.844;4.490;2023-04-02T12:31:00;4.97;;;1.70;;
14520;SDS011;7347;50.844;4.490;2023-04-02T12:33:31;3.33;;;1.47;;
14520;SDS011;7347;50.844;4.490;2023-04-02T12:36:02;2.93;;;1.60;;
14520;SDS011;7347;50.844;4.490;2023-04-02T12:38:31;5.43;;;1.43;;
14520;SDS011;7347;50.844;4.490;2023-04-02T12:41:01;2.33;;;1.50;;
14520;SDS011;7347;50.844;4.490;2023-04-02T12:43:30;3.63;;;1.90;;
14520;SDS011;7347;50.844;4.490;2023-04-02T12:45:59;3.97;;;1.63;;
14520;SDS011;7347;50.844;4.490;2023-04-02T12:48:28;1.97;;;1.20;;
14520;SDS011;7347;50.844;4.490;2023-04-02T12:50:57;6.93;;;1.53;;
14520;SDS011;7347;50.844;4.490;2023-04-02T12:53:27;3.40;;;1.63;;
14520;SDS011;7347;50.844;4.490;2023-04-02T12:55:59;3.83;;;1.40;;
14520;SDS011;7347;50.844;4.490;2023-04-02T12:58:28;3.47;;;1.30;;
14520;SDS011;7347;50.844;4.490;2023-04-02T13:01:10;2.67;;;1.40;;
14520;SDS011;7347;50.844;4.490;2023-04-02T13:03:38;2.93;;;1.40;;
14520;SDS011;7347;50.844;4.490;2023-04-02T13:06:19;3.33;;;1.73;;
14520;SDS011;7347;50.844;4.490;2023-04-02T13:08:48;3.10;;;1.53;;
14520;SDS011;7347;50.844;4.490;2023-04-02T13:11:16;1.73;;;1.30;;
14520;SDS011;7347;50.844;4.490;2023-04-02T13:13:44;2.50;;;1.13;;
14520;SDS011;7347;50.844;4.490;2023-04-02T13:16:22;3.20;;;1.40;;
14520;SDS011;7347;50.844;4.490;2023-04-02T13:19:07;3.57;;;1.30;;
14520;SDS011;7347;50.844;4.490;2023-04-02T13:21:48;2.03;;;1.40;;
14520;SDS011;7347;50.844;4.490;2023-04-02T13:24:17;4.03;;;1.33;;
14520;SDS011;7347;50.844;4.490;2023-04-02T13:26:44;4.17;;;1.20;;
14520;SDS011;7347;50.844;4.490;2023-04-02T13:29:18;1.93;;;1.70;;
14520;SDS011;7347;50.844;4.490;2023-04-02T13:31:46;4.57;;;1.80;;
14520;SDS011;7347;50.844;4.490;2023-04-02T13:34:13;3.40;;;1.73;;
14520;SDS011;7347;50.844;4.490;2023-04-02T13:36:40;2.87;;;1.43;;
14520;SDS011;7347;50.844;4.490;2023-04-02T13:39:09;2.73;;;1.23;;
14520;SDS011;7347;50.844;4.490;2023-04-02T13:41:38;1.60;;;1.20;;
14520;SDS011;7347;50.844;4.490;2023-04-02T13:44:10;2.63;;;1.50;;
14520;SDS011;7347;50.844;4.490;2023-04-02T13:46:43;2.30;;;1.30;;
14520;SDS011;7347;50.844;4.490;2023-04-02T13:49:10;2.77;;;1.40;;
14520;SDS011;7347;50.844;4.490;2023-04-02T13:51:38;2.03;;;1.40;;
14520;SDS011;7347;50.844;4.490;2023-04-02T13:54:10;3.13;;;1.50;;
14520;SDS011;7347;50.844;4.490;2023-04-02T13:56:42;3.00;;;1.23;;
14520;SDS011;7347;50.844;4.490;2023-04-02T13:59:08;2.90;;;1.30;;
14520;SDS011;7347;50.844;4.490;2023-04-02T14:01:35;3.13;;;1.57;;
14520;SDS011;7347;50.844;4.490;2023-04-02T14:04:02;7.87;;;1.67;;
14520;SDS011;7347;50.844;4.490;2023-04-02T14:06:35;1.70;;;1.40;;
14520;SDS011;7347;50.844;4.490;2023-04-02T14:09:19;2.40;;;1.40;;
14520;SDS011;7347;50.844;4.490;2023-04-02T14:11:54;3.37;;;1.23;;
14520;SDS011;7347;50.844;4.490;2023-04-02T14:14:36;2.33;;;1.30;;
14520;SDS011;7347;50.844;4.490;2023-04-02T14:17:31;1.80;;;1.20;;
14520;SDS011;7347;50.844;4.490;2023-04-02T14:20:05;3.40;;;1.30;;
14520;SDS011;7347;50.844;4.490;2023-04-02T14:22:47;1.73;;;1.33;;
14520;SDS011;7347;50.844;4.490;2023-04-02T14:25:31;2.23;;;1.00;;
14520;SDS011;7347;50.844;4.490;2023-04-02T14:28:03;1.43;;;1.10;;
14520;SDS011;7347;50.844;4.490;2023-04-02T14:30:39;1.90;;;1.20;;
14520;SDS011;7347;50.844;4.490;2023-04-02T14:33:14;2.93;;;1.23;;
14520;SDS011;7347;50.844;4.490;2023-04-02T14:35:56;3.67;;;1.33;;
14520;SDS011;7347;50.844;4.490;2023-04-02T14:38:30;3.60;;;1.30;;
14520;SDS011;7347;50.844;4.490;2023-04-02T14:41:03;3.50;;;1.70;;
14520;SDS011;7347;50.844;4.490;2023-04-02T14:43:39;1.80;;;1.27;;
14520;SDS011;7347;50.844;4.490;2023-04-02T14:46:11;2.20;;;1.30;;
14520;SDS011;7347;50.844;4.490;2023-04-02T14:48:42;2.93;;;1.40;;
14520;SDS011;7347;50.844;4.490;2023-04-02T14:51:16;2.93;;;1.30;;
14520;SDS011;7347;50.844;4.490;2023-04-02T14:53:51;1.53;;;1.10;;
14520;SDS011;7347;50.844;4.490;2023-04-02T14:56:25;2.37;;;1.10;;
14520;SDS011;7347;50.844;4.490;2023-04-02T14:58:56;4.90;;;1.70;;
14520;SDS011;7347;50.844;4.490;2023-04-02T15:01:32;2.17;;;1.37;;
14520;SDS011;7347;50.844;4.490;2023-04-02T15:04:03;2.43;;;1.53;;
14520;SDS011;7347;50.844;4.490;2023-04-02T15:06:34;2.33;;;1.43;;
14520;SDS011;7347;50.844;4.490;2023-04-02T15:09:06;3.27;;;1.20;;
14520;SDS011;7347;50.844;4.490;2023-04-02T15:11:40;2.03;;;1.33;;
14520;SDS011;7347;50.844;4.490;2023-04-02T15:14:11;2.20;;;1.30;;
14520;SDS011;7347;50.844;4.490;2023-04-02T15:16:43;2.43;;;1.37;;
14520;SDS011;7347;50.844;4.490;2023-04-02T15:19:11;2.67;;;1.70;;
14520;SDS011;7347;50.844;4.490;2023-04-02T15:21:53;3.80;;;1.50;;
14520;SDS011;7347;50.844;4.490;2023-04-02T15:24:30;2.63;;;1.37;;
14520;SDS011;7347;50.844;4.490;2023-04-02T15:27:06;2.97;;;1.57;;
14520;SDS011;7347;50.844;4.490;2023-04-02T15:29:41;3.57;;;1.60;;
14520;SDS011;7347;50.844;4.490;2023-04-02T15:32:16;2.97;;;1.10;;
14520;SDS011;7347;50.844;4.490;2023-04-02T15:34:52;3.83;;;1.70;;
14520;SDS011;7347;50.844;4.490;2023-04-02T15:37:26;2.80;;;1.33;;
14520;SDS011;7347;50.844;4.490;2023-04-02T15:40:05;3.07;;;1.20;;
14520;SDS011;7347;50.844;4.490;2023-04-02T15:42:44;1.77;;;1.30;;
14520;SDS011;7347;50.844;4.490;2023-04-02T15:48:20;2.63;;;1.23;;
14520;SDS011;7347;50.844;4.490;2023-04-02T15:51:01;4.03;;;1.63;;
14520;SDS011;7347;50.844;4.490;2023-04-02T15:53:38;1.80;;;1.10;;
14520;SDS011;7347;50.844;4.490;2023-04-02T15:56:16;1.97;;;1.33;;
14520;SDS011;7347;50.844;4.490;2023-04-02T15:58:52;5.40;;;1.60;;
14520;SDS011;7347;50.844;4.490;2023-04-02T16:01:38;1.30;;;1.10;;
14520;SDS011;7347;50.844;4.490;2023-04-02T16:04:18;3.23;;;1.70;;
14520;SDS011;7347;50.844;4.490;2023-04-02T16:07:00;1.70;;;1.13;;
14520;SDS011;7347;50.844;4.490;2023-04-02T16:09:50;4.40;;;1.50;;
14520;SDS011;7347;50.844;4.490;2023-04-02T16:12:29;3.73;;;1.40;;
14520;SDS011;7347;50.844;4.490;2023-04-02T16:15:02;3.10;;;1.70;;
14520;SDS011;7347;50.844;4.490;2023-04-02T16:17:39;4.73;;;1.60;;
14520;SDS011;7347;50.844;4.490;2023-04-02T16:20:15;2.40;;;1.47;;
14520;SDS011;7347;50.844;4.490;2023-04-02T16:22:47;2.97;;;1.40;;
14520;SDS011;7347;50.844;4.490;2023-04-02T16:25:22;2.40;;;1.30;;
14520;SDS011;7347;50.844;4.490;2023-04-02T16:27:53;3.63;;;1.60;;
14520;SDS011;7347;50.844;4.490;2023-04-02T16:30:40;3.50;;;1.23;;
14520;SDS011;7347;50.844;4.490;2023-04-02T16:33:16;1.70;;;0.90;;
14520;SDS011;7347;50.844;4.490;2023-04-02T16:35:55;1.50;;;1.20;;
14520;SDS011;7347;50.844;4.490;2023-04-02T16:38:39;2.60;;;1.37;;
14520;SDS011;7347;50.844;4.490;2023-04-02T16:41:15;2.90;;;1.00;;
14520;SDS011;7347;50.844;4.490;2023-04-02T16:43:48;0.77;;;0.77;;
14520;SDS011;7347;50.844;4.490;2023-04-02T16:46:25;2.57;;;0.67;;
14520;SDS011;7347;50.844;4.490;2023-04-02T16:48:58;1.17;;;0.80;;
14520;SDS011;7347;50.844;4.490;2023-04-02T16:51:36;1.53;;;0.70;;
14520;SDS011;7347;50.844;4.490;2023-04-02T16:54:10;2.70;;;0.90;;
14520;SDS011;7347;50.844;4.490;2023-04-02T16:56:45;2.27;;;0.90;;
14520;SDS011;7347;50.844;4.490;2023-04-02T16:59:22;1.00;;;0.60;;
14520;SDS011;7347;50.844;4.490;2023-04-02T17:02:00;4.13;;;0.90;;
14520;SDS011;7347;50.844;4.490;2023-04-02T17:04:45;1.37;;;0.90;;
14520;SDS011;7347;50.844;4.490;2023-04-02T17:07:25;1.73;;;0.73;;
14520;SDS011;7347;50.844;4.490;2023-04-02T17:10:01;1.13;;;0.80;;
14520;SDS011;7347;50.844;4.490;2023-04-02T17:12:50;1.33;;;0.80;;
14520;SDS011;7347;50.844;4.490;2023-04-02T17:15:25;2.13;;;1.03;;
14520;SDS011;7347;50.844;4.490;2023-04-02T17:17:54;1.60;;;0.90;;
14520;SDS011;7347;50.844;4.490;2023-04-02T17:20:24;4.30;;;1.10;;
14520;SDS011;7347;50.844;4.490;2023-04-02T17:22:51;4.10;;;1.10;;
14520;SDS011;7347;50.844;4.490;2023-04-02T17:25:22;2.17;;;1.17;;
14520;SDS011;7347;50.844;4.490;2023-04-02T17:27:52;2.30;;;1.30;;
14520;SDS011;7347;50.844;4.490;2023-04-02T17:30:22;4.83;;;1.80;;
14520;SDS011;7347;50.844;4.490;2023-04-02T17:32:57;6.93;;;2.20;;
14520;SDS011;7347;50.844;4.490;2023-04-02T17:35:25;4.50;;;1.90;;
14520;SDS011;7347;50.844;4.490;2023-04-02T17:37:59;6.03;;;2.10;;
14520;SDS011;7347;50.844;4.490;2023-04-02T17:40:36;3.53;;;2.33;;
14520;SDS011;7347;50.844;4.490;2023-04-02T17:43:09;4.17;;;2.47;;
14520;SDS011;7347;50.844;4.490;2023-04-02T17:45:44;4.90;;;2.70;;
14520;SDS011;7347;50.844;4.490;2023-04-02T17:48:18;6.23;;;3.03;;
14520;SDS011;7347;50.844;4.490;2023-04-02T17:50:52;3.00;;;2.50;;
14520;SDS011;7347;50.844;4.490;2023-04-02T17:53:33;3.70;;;2.63;;
14520;SDS011;7347;50.844;4.490;2023-04-02T17:56:06;3.47;;;2.60;;
14520;SDS011;7347;50.844;4.490;2023-04-02T17:58:53;4.90;;;2.83;;
14520;SDS011;7347;50.844;4.490;2023-04-02T18:01:33;4.20;;;2.37;;
14520;SDS011;7347;50.844;4.490;2023-04-02T18:04:08;3.20;;;2.70;;
14520;SDS011;7347;50.844;4.490;2023-04-02T18:06:45;3.50;;;2.23;;
14520;SDS011;7347;50.844;4.490;2023-04-02T18:09:30;3.47;;;2.80;;
14520;SDS011;7347;50.844;4.490;2023-04-02T18:12:09;3.33;;;2.40;;
14520;SDS011;7347;50.844;4.490;2023-04-02T18:14:50;3.57;;;2.80;;
14520;SDS011;7347;50.844;4.490;2023-04-02T18:17:29;4.67;;;2.67;;
14520;SDS011;7347;50.844;4.490;2023-04-02T18:20:06;4.40;;;3.20;;
14520;SDS011;7347;50.844;4.490;2023-04-02T18:22:42;4.13;;;3.10;;
14520;SDS011;7347;50.844;4.490;2023-04-02T18:25:19;5.90;;;3.10;;
14520;SDS011;7347;50.844;4.490;2023-04-02T18:28:05;6.27;;;3.00;;
14520;SDS011;7347;50.844;4.490;2023-04-02T18:30:42;4.00;;;3.07;;
14520;SDS011;7347;50.844;4.490;2023-04-02T18:36:09;5.13;;;3.30;;
14520;SDS011;7347;50.844;4.490;2023-04-02T18:38:41;5.53;;;3.73;;
14520;SDS011;7347;50.844;4.490;2023-04-02T18:41:21;5.20;;;2.90;;
14520;SDS011;7347;50.844;4.490;2023-04-02T18:44:07;5.63;;;3.60;;
14520;SDS011;7347;50.844;4.490;2023-04-02T18:46:42;6.03;;;3.90;;
14520;SDS011;7347;50.844;4.490;2023-04-02T18:49:19;7.63;;;3.70;;
14520;SDS011;7347;50.844;4.490;2023-04-02T18:51:54;6.83;;;4.03;;
14520;SDS011;7347;50.844;4.490;2023-04-02T18:54:24;6.20;;;4.10;;
14520;SDS011;7347;50.844;4.490;2023-04-02T18:56:56;6.00;;;3.30;;
14520;SDS011;7347;50.844;4.490;2023-04-02T18:59:31;6.30;;;3.83;;
14520;SDS011;7347;50.844;4.490;2023-04-02T19:02:05;5.50;;;3.70;;
14520;SDS011;7347;50.844;4.490;2023-04-02T19:04:58;4.77;;;3.57;;
14520;SDS011;7347;50.844;4.490;2023-04-02T19:07:29;6.67;;;3.97;;
14520;SDS011;7347;50.844;4.490;2023-04-02T19:10:03;5.70;;;3.73;;
14520;SDS011;7347;50.844;4.490;2023-04-02T19:12:37;6.03;;;3.97;;
14520;SDS011;7347;50.844;4.490;2023-04-02T19:15:13;6.40;;;4.17;;
14520;SDS011;7347;50.844;4.490;2023-04-02T19:17:42;7.50;;;4.97;;
14520;SDS011;7347;50.844;4.490;2023-04-02T19:20:13;8.33;;;4.27;;
14520;SDS011;7347;50.844;4.490;2023-04-02T19:22:54;7.30;;;4.63;;
14520;SDS011;7347;50.844;4.490;2023-04-02T19:25:33;6.63;;;3.90;;
14520;SDS011;7347;50.844;4.490;2023-04-02T19:28:11;6.37;;;4.20;;
14520;SDS011;7347;50.844;4.490;2023-04-02T19:33:47;11.03;;;4.43;;
14520;SDS011;7347;50.844;4.490;2023-04-02T19:36:19;6.73;;;3.97;;
14520;SDS011;7347;50.844;4.490;2023-04-02T19:39:13;6.30;;;4.53;;
14520;SDS011;7347;50.844;4.490;2023-04-02T19:41:57;8.53;;;4.80;;
14520;SDS011;7347;50.844;4.490;2023-04-02T19:44:33;9.93;;;4.73;;
14520;SDS011;7347;50.844;4.490;2023-04-02T19:47:00;8.30;;;4.57;;
14520;SDS011;7347;50.844;4.490;2023-04-02T19:49:28;7.67;;;4.77;;
14520;SDS011;7347;50.844;4.490;2023-04-02T19:51:57;8.43;;;5.07;;
14520;SDS011;7347;50.844;4.490;2023-04-02T19:54:25;7.13;;;4.83;;
14520;SDS011;7347;50.844;4.490;2023-04-02T19:56:52;7.17;;;4.13;;
14520;SDS011;7347;50.844;4.490;2023-04-02T19:59:19;8.13;;;3.77;;
14520;SDS011;7347;50.844;4.490;2023-04-02T20:01:46;7.27;;;4.80;;
14520;SDS011;7347;50.844;4.490;2023-04-02T20:04:13;7.67;;;4.90;;
14520;SDS011;7347;50.844;4.490;2023-04-02T20:06:41;7.43;;;4.83;;
14520;SDS011;7347;50.844;4.490;2023-04-02T20:09:08;7.53;;;4.97;;
14520;SDS011;7347;50.844;4.490;2023-04-02T20:11:37;6.93;;;4.80;;
14520;SDS011;7347;50.844;4.490;2023-04-02T20:14:04;9.90;;;4.70;;
14520;SDS011;7347;50.844;4.490;2023-04-02T20:16:31;6.70;;;3.80;;
14520;SDS011;7347;50.844;4.490;2023-04-02T20:19:00;8.60;;;4.70;;
14520;SDS011;7347;50.844;4.490;2023-04-02T20:21:27;7.30;;;4.40;;
14520;SDS011;7347;50.844;4.490;2023-04-02T20:23:58;7.60;;;4.30;;
14520;SDS011;7347;50.844;4.490;2023-04-02T20:26:25;10.03;;;4.83;;
14520;SDS011;7347;50.844;4.490;2023-04-02T20:28:55;10.90;;;5.33;;
14520;SDS011;7347;50.844;4.490;2023-04-02T20:31:21;9.87;;;5.20;;
14520;SDS011;7347;50.844;4.490;2023-04-02T20:33:48;10.30;;;5.57;;
14520;SDS011;7347;50.844;4.490;2023-04-02T20:36:19;7.90;;;5.23;;
14520;SDS011;7347;50.844;4.490;2023-04-02T20:38:45;9.50;;;5.90;;
14520;SDS011;7347;50.844;4.490;2023-04-02T20:41:12;8.93;;;5.10;;
14520;SDS011;7347;50.844;4.490;2023-04-02T20:43:40;12.97;;;6.00;;
14520;SDS011;7347;50.844;4.490;2023-04-02T20:46:09;9.10;;;5.60;;
14520;SDS011;7347;50.844;4.490;2023-04-02T20:48:37;10.73;;;5.67;;
14520;SDS011;7347;50.844;4.490;2023-04-02T20:51:05;12.97;;;5.90;;
14520;SDS011;7347;50.844;4.490;2023-04-02T20:53:33;10.07;;;5.43;;
14520;SDS011;7347;50.844;4.490;2023-04-02T20:56:02;7.17;;;5.13;;
14520;SDS011;7347;50.844;4.490;2023-04-02T20:58:30;10.83;;;5.17;;
14520;SDS011;7347;50.844;4.490;2023-04-02T21:01:05;11.30;;;5.43;;
14520;SDS011;7347;50.844;4.490;2023-04-02T21:03:35;11.00;;;5.67;;
14520;SDS011;7347;50.844;4.490;2023-04-02T21:06:03;8.13;;;5.00;;
14520;SDS011;7347;50.844;4.490;2023-04-02T21:08:31;8.57;;;5.50;;
14520;SDS011;7347;50.844;4.490;2023-04-02T21:11:01;9.10;;;5.17;;
